This is the latest recevied weather packets stored in our database for station/object IK1PCD-11. If no packets are shown the sender has not sent any weather packets the latest 10 day(s).
| Time | Temp. | Humidity | Pressure | Rain* | Wind** | Luminosity | Snow |
|---|---|---|---|---|---|---|---|
| 1787433049 | 11.11° C | 100% | 1020.1 hPa | - | - | - | - |
| 1787432149 | 11.11° C | 100% | 1020.1 hPa | - | - | - | - |
| 1787431251 | 11.67° C | 100% | 1020.1 hPa | - | - | - | - |
| 1787430348 | 12.22° C | 100% | 1020.1 hPa | - | - | - | - |
| 1787429448 | 12.78° C | 100% | 1020.1 hPa | - | - | - | - |
| 1787428548 | 13.33° C | 100% | 1020.2 hPa | - | - | - | - |
| 1787427648 | 13.89° C | 100% | 1020 hPa | - | - | - | - |
| 1787426748 | 14.44° C | 100% | 1019.8 hPa | - | - | - | - |
| 1787425848 | 15° C | 100% | 1019.8 hPa | - | - | - | - |
| 1787424948 | 15.56° C | 100% | 1019.7 hPa | - | - | - | - |
| 1787421348 | 17.78° C | 100% | 1019 hPa | - | - | - | - |
| 1787420447 | 18.33° C | 100% | 1018.7 hPa | - | - | - | - |
| 1787419547 | 18.89° C | 100% | 1018.6 hPa | - | - | - | - |
| 1787418647 | 19.44° C | 100% | 1018.5 hPa | - | - | - | - |
| 1787417746 | 19.44° C | 100% | 1018.4 hPa | - | - | - | - |
| 1787416846 | 19.44° C | 100% | 1018.6 hPa | - | - | - | - |
| 1787415946 | 19.44° C | 100% | 1018.7 hPa | - | - | - | - |
| 1787415045 | 20° C | 100% | 1018.3 hPa | - | - | - | - |
| 1787414145 | 21.11° C | 100% | 1018.1 hPa | - | - | - | - |
| 1787413243 | 21.67° C | 100% | 1018 hPa | - | - | - | - |
| 1787412343 | 21.11° C | 100% | 1018 hPa | - | - | - | - |
| 1787411443 | 21.67° C | 100% | 1017.8 hPa | - | - | - | - |
| 1787410543 | 21.11° C | 100% | 1017.8 hPa | - | - | - | - |
| 1787409643 | 21.11° C | 100% | 1017.9 hPa | - | - | - | - |
| 1787406943 | 21.11° C | 100% | 1017.6 hPa | - | - | - | - |
* Rain since midnight (hover to see other rain measurements)
** Current wind speed in m/s (hover to see current wind gust speed)